sensor_id;sensor_type;location;lat;lon;timestamp;pressure;altitude;pressure_sealevel;temperature;humidity
3250;BME280;1637;42.020;23.992;2023-07-16T00:01:56;93226.69;;;22.53;97.43
3250;BME280;1637;42.020;23.992;2023-07-16T00:04:23;93207.84;;;22.40;97.83
3250;BME280;1637;42.020;23.992;2023-07-16T00:06:51;93202.38;;;22.40;97.79
3250;BME280;1637;42.020;23.992;2023-07-16T00:09:18;93193.72;;;22.42;97.66
3250;BME280;1637;42.020;23.992;2023-07-16T00:11:48;93202.34;;;22.64;95.56
3250;BME280;1637;42.020;23.992;2023-07-16T00:14:15;93208.38;;;22.68;94.77
3250;BME280;1637;42.020;23.992;2023-07-16T00:16:41;93201.03;;;22.59;95.17
3250;BME280;1637;42.020;23.992;2023-07-16T00:19:10;93203.22;;;22.46;96.38
3250;BME280;1637;42.020;23.992;2023-07-16T00:21:37;93199.47;;;22.44;96.32
3250;BME280;1637;42.020;23.992;2023-07-16T00:24:05;93209.28;;;22.26;98.08
3250;BME280;1637;42.020;23.992;2023-07-16T00:26:32;93205.88;;;22.17;98.62
3250;BME280;1637;42.020;23.992;2023-07-16T00:28:59;93201.72;;;21.98;100.00
3250;BME280;1637;42.020;23.992;2023-07-16T00:31:26;93205.22;;;21.98;100.00
3250;BME280;1637;42.020;23.992;2023-07-16T00:33:52;93207.47;;;22.00;100.00
3250;BME280;1637;42.020;23.992;2023-07-16T00:36:19;93202.19;;;21.96;100.00
3250;BME280;1637;42.020;23.992;2023-07-16T00:38:46;93210.06;;;21.94;100.00
3250;BME280;1637;42.020;23.992;2023-07-16T00:41:14;93208.78;;;21.80;100.00
3250;BME280;1637;42.020;23.992;2023-07-16T00:43:41;93199.84;;;21.80;100.00
3250;BME280;1637;42.020;23.992;2023-07-16T00:46:08;93205.78;;;21.69;100.00
3250;BME280;1637;42.020;23.992;2023-07-16T00:48:35;93196.28;;;21.65;100.00
3250;BME280;1637;42.020;23.992;2023-07-16T00:51:03;93198.75;;;21.86;100.00
3250;BME280;1637;42.020;23.992;2023-07-16T00:53:30;93203.91;;;21.84;100.00
3250;BME280;1637;42.020;23.992;2023-07-16T00:55:58;93205.41;;;21.85;100.00
3250;BME280;1637;42.020;23.992;2023-07-16T00:58:26;93204.63;;;21.61;100.00
3250;BME280;1637;42.020;23.992;2023-07-16T01:00:53;93200.25;;;21.54;100.00
3250;BME280;1637;42.020;23.992;2023-07-16T01:03:20;93197.25;;;21.52;100.00
3250;BME280;1637;42.020;23.992;2023-07-16T01:05:51;93204.03;;;21.57;100.00
3250;BME280;1637;42.020;23.992;2023-07-16T01:08:28;93196.03;;;21.53;100.00
3250;BME280;1637;42.020;23.992;2023-07-16T01:10:57;93213.66;;;21.34;100.00
3250;BME280;1637;42.020;23.992;2023-07-16T01:13:26;93205.63;;;21.40;100.00
3250;BME280;1637;42.020;23.992;2023-07-16T01:15:53;93206.09;;;21.29;100.00
3250;BME280;1637;42.020;23.992;2023-07-16T01:18:20;93195.66;;;21.18;100.00
3250;BME280;1637;42.020;23.992;2023-07-16T01:20:47;93202.31;;;21.26;100.00
3250;BME280;1637;42.020;23.992;2023-07-16T01:23:28;93193.84;;;21.15;100.00
3250;BME280;1637;42.020;23.992;2023-07-16T01:26:08;93192.66;;;21.07;100.00
3250;BME280;1637;42.020;23.992;2023-07-16T01:28:49;93193.28;;;21.02;100.00
3250;BME280;1637;42.020;23.992;2023-07-16T01:31:21;93192.41;;;20.96;100.00
3250;BME280;1637;42.020;23.992;2023-07-16T01:33:49;93203.13;;;20.90;100.00
3250;BME280;1637;42.020;23.992;2023-07-16T01:36:17;93188.63;;;20.84;100.00
3250;BME280;1637;42.020;23.992;2023-07-16T01:38:44;93189.41;;;20.76;100.00
3250;BME280;1637;42.020;23.992;2023-07-16T01:41:11;93187.88;;;20.84;100.00
3250;BME280;1637;42.020;23.992;2023-07-16T01:43:38;93180.47;;;20.75;100.00
3250;BME280;1637;42.020;23.992;2023-07-16T01:46:05;93199.53;;;20.66;100.00
3250;BME280;1637;42.020;23.992;2023-07-16T01:48:34;93185.63;;;20.73;100.00
3250;BME280;1637;42.020;23.992;2023-07-16T01:51:02;93186.41;;;20.55;100.00
3250;BME280;1637;42.020;23.992;2023-07-16T01:53:29;93183.66;;;20.55;100.00
3250;BME280;1637;42.020;23.992;2023-07-16T01:55:57;93185.47;;;20.58;100.00
3250;BME280;1637;42.020;23.992;2023-07-16T01:58:24;93185.34;;;20.53;100.00
3250;BME280;1637;42.020;23.992;2023-07-16T02:00:50;93181.97;;;20.58;100.00
3250;BME280;1637;42.020;23.992;2023-07-16T02:03:18;93184.56;;;20.71;100.00
3250;BME280;1637;42.020;23.992;2023-07-16T02:05:47;93198.47;;;20.73;100.00
3250;BME280;1637;42.020;23.992;2023-07-16T02:08:14;93200.16;;;20.52;100.00
3250;BME280;1637;42.020;23.992;2023-07-16T02:10:41;93193.81;;;20.55;100.00
3250;BME280;1637;42.020;23.992;2023-07-16T02:13:08;93191.53;;;20.72;100.00
3250;BME280;1637;42.020;23.992;2023-07-16T02:15:35;93186.81;;;20.81;100.00
3250;BME280;1637;42.020;23.992;2023-07-16T02:18:03;93198.75;;;20.84;100.00
3250;BME280;1637;42.020;23.992;2023-07-16T02:20:30;93200.88;;;20.89;100.00
3250;BME280;1637;42.020;23.992;2023-07-16T02:22:58;93200.56;;;20.96;100.00
3250;BME280;1637;42.020;23.992;2023-07-16T02:25:25;93197.09;;;20.96;100.00
3250;BME280;1637;42.020;23.992;2023-07-16T02:27:52;93196.78;;;20.93;100.00
3250;BME280;1637;42.020;23.992;2023-07-16T02:30:19;93199.63;;;20.99;100.00
3250;BME280;1637;42.020;23.992;2023-07-16T02:32:46;93202.22;;;20.93;100.00
3250;BME280;1637;42.020;23.992;2023-07-16T02:35:13;93189.22;;;20.88;100.00
3250;BME280;1637;42.020;23.992;2023-07-16T02:37:40;93204.50;;;20.95;100.00
3250;BME280;1637;42.020;23.992;2023-07-16T02:40:08;93202.97;;;20.85;100.00
3250;BME280;1637;42.020;23.992;2023-07-16T02:42:35;93204.81;;;20.79;100.00
3250;BME280;1637;42.020;23.992;2023-07-16T02:45:02;93200.75;;;20.56;100.00
3250;BME280;1637;42.020;23.992;2023-07-16T02:47:29;93205.00;;;20.57;100.00
3250;BME280;1637;42.020;23.992;2023-07-16T02:49:56;93203.31;;;20.50;100.00
3250;BME280;1637;42.020;23.992;2023-07-16T02:52:23;93203.91;;;20.36;100.00
3250;BME280;1637;42.020;23.992;2023-07-16T02:54:50;93208.13;;;20.28;100.00
3250;BME280;1637;42.020;23.992;2023-07-16T02:57:18;93208.09;;;20.10;100.00
3250;BME280;1637;42.020;23.992;2023-07-16T02:59:45;93202.00;;;19.97;100.00
3250;BME280;1637;42.020;23.992;2023-07-16T03:02:12;93208.22;;;19.88;100.00
3250;BME280;1637;42.020;23.992;2023-07-16T03:04:38;93216.78;;;19.77;100.00
3250;BME280;1637;42.020;23.992;2023-07-16T03:07:06;93215.38;;;19.64;100.00
3250;BME280;1637;42.020;23.992;2023-07-16T03:09:33;93219.91;;;19.67;100.00
3250;BME280;1637;42.020;23.992;2023-07-16T03:11:59;93211.75;;;19.67;100.00
3250;BME280;1637;42.020;23.992;2023-07-16T03:14:27;93217.91;;;19.58;100.00
3250;BME280;1637;42.020;23.992;2023-07-16T03:16:54;93221.06;;;19.56;100.00
3250;BME280;1637;42.020;23.992;2023-07-16T03:19:21;93217.59;;;19.56;100.00
3250;BME280;1637;42.020;23.992;2023-07-16T03:21:48;93222.91;;;19.60;100.00
3250;BME280;1637;42.020;23.992;2023-07-16T03:24:15;93227.66;;;19.77;100.00
3250;BME280;1637;42.020;23.992;2023-07-16T03:26:42;93222.41;;;19.92;100.00
3250;BME280;1637;42.020;23.992;2023-07-16T03:29:08;93212.88;;;19.87;100.00
3250;BME280;1637;42.020;23.992;2023-07-16T03:31:37;93224.28;;;20.13;100.00
3250;BME280;1637;42.020;23.992;2023-07-16T03:34:03;93229.41;;;20.20;100.00
3250;BME280;1637;42.020;23.992;2023-07-16T03:36:30;93225.78;;;20.14;100.00
3250;BME280;1637;42.020;23.992;2023-07-16T03:38:57;93227.59;;;20.08;100.00
3250;BME280;1637;42.020;23.992;2023-07-16T03:41:24;93232.63;;;20.37;100.00
3250;BME280;1637;42.020;23.992;2023-07-16T03:43:51;93234.31;;;20.71;100.00
3250;BME280;1637;42.020;23.992;2023-07-16T03:46:17;93234.16;;;20.84;100.00
3250;BME280;1637;42.020;23.992;2023-07-16T03:48:46;93234.72;;;21.15;100.00
3250;BME280;1637;42.020;23.992;2023-07-16T03:51:13;93234.25;;;21.35;98.85
3250;BME280;1637;42.020;23.992;2023-07-16T03:53:39;93102.34;;;20.48;97.61
3250;BME280;1637;42.020;23.992;2023-07-16T03:56:06;93240.34;;;21.63;96.32
3250;BME280;1637;42.020;23.992;2023-07-16T03:58:33;93241.44;;;21.89;93.68
3250;BME280;1637;42.020;23.992;2023-07-16T04:01:00;93244.63;;;21.88;92.52
3250;BME280;1637;42.020;23.992;2023-07-16T04:03:27;93240.25;;;21.48;96.14
3250;BME280;1637;42.020;23.992;2023-07-16T04:06:02;93237.66;;;21.54;94.85
3250;BME280;1637;42.020;23.992;2023-07-16T04:08:29;93244.00;;;21.93;92.79
3250;BME280;1637;42.020;23.992;2023-07-16T04:10:56;93250.16;;;22.12;91.86
3250;BME280;1637;42.020;23.992;2023-07-16T04:13:23;93244.41;;;22.34;90.86
3250;BME280;1637;42.020;23.992;2023-07-16T04:15:49;93254.13;;;22.82;86.48
3250;BME280;1637;42.020;23.992;2023-07-16T04:18:18;93257.56;;;23.36;84.20
3250;BME280;1637;42.020;23.992;2023-07-16T04:20:45;93258.00;;;23.93;80.28
3250;BME280;1637;42.020;23.992;2023-07-16T04:23:13;93257.66;;;23.71;81.50
3250;BME280;1637;42.020;23.992;2023-07-16T04:25:40;93264.00;;;24.27;78.46
3250;BME280;1637;42.020;23.992;2023-07-16T04:28:07;93263.19;;;24.06;78.79
3250;BME280;1637;42.020;23.992;2023-07-16T04:30:34;93265.81;;;24.30;78.18
3250;BME280;1637;42.020;23.992;2023-07-16T04:33:02;93260.69;;;24.23;78.08
3250;BME280;1637;42.020;23.992;2023-07-16T04:35:29;93255.88;;;24.18;78.51
3250;BME280;1637;42.020;23.992;2023-07-16T04:37:56;93263.47;;;24.43;77.48
3250;BME280;1637;42.020;23.992;2023-07-16T04:40:24;93255.94;;;24.03;79.53
3250;BME280;1637;42.020;23.992;2023-07-16T04:42:51;93272.44;;;24.44;77.47
3250;BME280;1637;42.020;23.992;2023-07-16T04:45:18;93258.69;;;24.99;75.27
3250;BME280;1637;42.020;23.992;2023-07-16T04:47:45;93263.06;;;25.11;73.67
3250;BME280;1637;42.020;23.992;2023-07-16T04:50:11;93266.47;;;25.26;72.95
3250;BME280;1637;42.020;23.992;2023-07-16T04:52:38;93267.19;;;25.01;74.51
3250;BME280;1637;42.020;23.992;2023-07-16T04:55:06;93271.41;;;25.22;73.10
3250;BME280;1637;42.020;23.992;2023-07-16T04:57:34;93277.06;;;24.93;74.09
3250;BME280;1637;42.020;23.992;2023-07-16T05:00:01;93276.09;;;24.76;75.38
3250;BME280;1637;42.020;23.992;2023-07-16T05:02:28;93271.75;;;24.28;77.17
3250;BME280;1637;42.020;23.992;2023-07-16T05:04:55;93279.28;;;24.54;76.22
3250;BME280;1637;42.020;23.992;2023-07-16T05:07:22;93277.31;;;25.15;75.97
3250;BME280;1637;42.020;23.992;2023-07-16T05:09:48;93279.91;;;25.24;74.53
3250;BME280;1637;42.020;23.992;2023-07-16T05:12:15;93277.28;;;25.36;73.69
3250;BME280;1637;42.020;23.992;2023-07-16T05:14:45;93278.34;;;26.01;71.44
3250;BME280;1637;42.020;23.992;2023-07-16T05:17:12;93282.41;;;25.74;73.08
3250;BME280;1637;42.020;23.992;2023-07-16T05:19:39;93284.59;;;25.44;74.96
3250;BME280;1637;42.020;23.992;2023-07-16T05:22:06;93293.25;;;26.26;71.56
3250;BME280;1637;42.020;23.992;2023-07-16T05:24:33;93293.63;;;26.87;68.48
3250;BME280;1637;42.020;23.992;2023-07-16T05:27:00;93301.31;;;26.72;69.92
3250;BME280;1637;42.020;23.992;2023-07-16T05:29:27;93298.19;;;26.96;69.59
3250;BME280;1637;42.020;23.992;2023-07-16T05:31:56;93297.09;;;27.42;67.08
3250;BME280;1637;42.020;23.992;2023-07-16T05:34:22;93296.66;;;27.65;66.23
3250;BME280;1637;42.020;23.992;2023-07-16T05:36:49;93304.44;;;28.00;64.96
3250;BME280;1637;42.020;23.992;2023-07-16T05:39:19;93306.69;;;28.19;64.43
3250;BME280;1637;42.020;23.992;2023-07-16T05:41:46;93313.22;;;28.16;63.86
3250;BME280;1637;42.020;23.992;2023-07-16T05:44:12;93301.59;;;28.79;62.81
3250;BME280;1637;42.020;23.992;2023-07-16T05:46:39;93303.75;;;29.19;61.53
3250;BME280;1637;42.020;23.992;2023-07-16T05:49:08;93304.41;;;29.42;59.95
3250;BME280;1637;42.020;23.992;2023-07-16T05:51:35;93304.25;;;29.70;59.17
3250;BME280;1637;42.020;23.992;2023-07-16T05:54:02;93305.34;;;29.56;59.34
3250;BME280;1637;42.020;23.992;2023-07-16T05:56:29;93299.69;;;30.14;58.27
3250;BME280;1637;42.020;23.992;2023-07-16T05:58:55;93306.19;;;29.81;59.57
3250;BME280;1637;42.020;23.992;2023-07-16T06:01:22;93306.28;;;29.64;60.04
3250;BME280;1637;42.020;23.992;2023-07-16T06:03:49;93305.91;;;30.20;59.02
3250;BME280;1637;42.020;23.992;2023-07-16T06:06:17;93297.75;;;30.63;58.28
3250;BME280;1637;42.020;23.992;2023-07-16T06:08:44;93295.25;;;31.08;56.79
3250;BME280;1637;42.020;23.992;2023-07-16T06:11:12;93299.50;;;31.09;56.61
3250;BME280;1637;42.020;23.992;2023-07-16T06:13:39;93307.00;;;32.08;53.48
3250;BME280;1637;42.020;23.992;2023-07-16T06:16:05;93302.22;;;31.76;53.90
3250;BME280;1637;42.020;23.992;2023-07-16T06:18:32;93293.16;;;30.41;57.48
3250;BME280;1637;42.020;23.992;2023-07-16T06:20:59;93291.25;;;30.85;55.56
3250;BME280;1637;42.020;23.992;2023-07-16T06:23:27;93270.22;;;31.19;55.51
3250;BME280;1637;42.020;23.992;2023-07-16T06:25:54;93282.56;;;31.18;54.75
3250;BME280;1637;42.020;23.992;2023-07-16T06:28:22;93281.06;;;32.24;52.84
3250;BME280;1637;42.020;23.992;2023-07-16T06:30:49;93286.53;;;31.41;54.16
3250;BME280;1637;42.020;23.992;2023-07-16T06:33:17;93280.03;;;32.08;52.58
3250;BME280;1637;42.020;23.992;2023-07-16T06:35:44;93278.69;;;31.46;53.90
3250;BME280;1637;42.020;23.992;2023-07-16T06:38:12;93279.25;;;31.95;52.86
3250;BME280;1637;42.020;23.992;2023-07-16T06:40:40;93275.56;;;32.05;52.98
3250;BME280;1637;42.020;23.992;2023-07-16T06:43:11;93289.19;;;31.71;52.68
3250;BME280;1637;42.020;23.992;2023-07-16T06:45:38;93268.81;;;31.50;53.38
3250;BME280;1637;42.020;23.992;2023-07-16T06:48:05;93267.13;;;31.04;55.30
3250;BME280;1637;42.020;23.992;2023-07-16T06:50:32;93270.81;;;32.19;51.93
3250;BME280;1637;42.020;23.992;2023-07-16T06:52:59;93273.84;;;32.34;51.11
3250;BME280;1637;42.020;23.992;2023-07-16T06:55:26;93281.69;;;33.41;48.95
3250;BME280;1637;42.020;23.992;2023-07-16T06:57:54;93263.41;;;31.20;53.67
3250;BME280;1637;42.020;23.992;2023-07-16T07:00:21;93263.19;;;32.06;52.26
3250;BME280;1637;42.020;23.992;2023-07-16T07:02:48;93262.69;;;32.40;51.50
3250;BME280;1637;42.020;23.992;2023-07-16T07:05:15;93267.97;;;32.25;51.44
3250;BME280;1637;42.020;23.992;2023-07-16T07:07:41;93265.53;;;32.02;52.51
3250;BME280;1637;42.020;23.992;2023-07-16T07:10:11;93263.75;;;33.29;49.30
3250;BME280;1637;42.020;23.992;2023-07-16T07:12:38;93268.41;;;33.47;48.76
3250;BME280;1637;42.020;23.992;2023-07-16T07:15:08;93249.22;;;31.67;52.76
3250;BME280;1637;42.020;23.992;2023-07-16T07:17:35;93277.81;;;32.39;52.86
3250;BME280;1637;42.020;23.992;2023-07-16T07:20:03;93235.53;;;32.78;50.91
3250;BME280;1637;42.020;23.992;2023-07-16T07:22:31;93254.91;;;32.65;50.34
3250;BME280;1637;42.020;23.992;2023-07-16T07:24:58;93246.47;;;32.12;52.06
3250;BME280;1637;42.020;23.992;2023-07-16T07:27:25;93252.56;;;32.69;51.19
3250;BME280;1637;42.020;23.992;2023-07-16T07:29:51;93236.84;;;33.24;49.81
3250;BME280;1637;42.020;23.992;2023-07-16T07:32:22;93253.94;;;33.28;50.84
3250;BME280;1637;42.020;23.992;2023-07-16T07:34:50;93251.00;;;33.60;48.61
3250;BME280;1637;42.020;23.992;2023-07-16T07:37:16;93254.94;;;33.65;48.48
3250;BME280;1637;42.020;23.992;2023-07-16T07:39:44;93251.72;;;33.00;50.83
3250;BME280;1637;42.020;23.992;2023-07-16T07:42:13;93255.38;;;34.10;47.59
3250;BME280;1637;42.020;23.992;2023-07-16T07:44:40;93251.16;;;33.15;49.69
3250;BME280;1637;42.020;23.992;2023-07-16T07:47:06;93259.28;;;34.07;47.54
3250;BME280;1637;42.020;23.992;2023-07-16T07:49:35;93245.22;;;34.34;46.85
3250;BME280;1637;42.020;23.992;2023-07-16T07:52:02;93241.09;;;34.06;47.76
3250;BME280;1637;42.020;23.992;2023-07-16T07:54:31;93228.13;;;31.96;52.13
3250;BME280;1637;42.020;23.992;2023-07-16T07:57:00;93230.44;;;32.24;51.96
3250;BME280;1637;42.020;23.992;2023-07-16T07:59:28;93231.03;;;32.75;49.95
3250;BME280;1637;42.020;23.992;2023-07-16T08:01:55;93228.31;;;31.66;53.07
3250;BME280;1637;42.020;23.992;2023-07-16T08:04:22;93222.19;;;31.73;53.30
3250;BME280;1637;42.020;23.992;2023-07-16T08:06:52;93228.25;;;33.01;49.53
3250;BME280;1637;42.020;23.992;2023-07-16T08:09:19;93232.22;;;33.74;48.16
3250;BME280;1637;42.020;23.992;2023-07-16T08:11:46;93214.13;;;32.33;52.99
3250;BME280;1637;42.020;23.992;2023-07-16T08:14:13;93225.38;;;32.94;51.07
3250;BME280;1637;42.020;23.992;2023-07-16T08:16:40;93228.88;;;32.68;50.90
3250;BME280;1637;42.020;23.992;2023-07-16T08:19:06;93226.97;;;33.50;49.99
3250;BME280;1637;42.020;23.992;2023-07-16T08:21:33;93228.66;;;33.66;48.69
3250;BME280;1637;42.020;23.992;2023-07-16T08:24:03;93233.81;;;33.49;48.53
3250;BME280;1637;42.020;23.992;2023-07-16T08:26:30;93224.63;;;33.88;48.86
3250;BME280;1637;42.020;23.992;2023-07-16T08:28:57;93230.31;;;33.69;48.01
3250;BME280;1637;42.020;23.992;2023-07-16T08:31:24;93230.13;;;33.67;49.14
3250;BME280;1637;42.020;23.992;2023-07-16T08:33:51;93221.84;;;33.54;50.08
3250;BME280;1637;42.020;23.992;2023-07-16T08:36:18;93208.59;;;33.46;49.39
3250;BME280;1637;42.020;23.992;2023-07-16T08:38:45;93198.84;;;32.14;52.28
3250;BME280;1637;42.020;23.992;2023-07-16T08:41:14;93210.19;;;33.55;50.69
3250;BME280;1637;42.020;23.992;2023-07-16T08:43:41;93212.88;;;34.44;47.35
3250;BME280;1637;42.020;23.992;2023-07-16T08:46:09;93219.72;;;34.01;47.58
3250;BME280;1637;42.020;23.992;2023-07-16T08:48:36;93216.66;;;34.12;47.36
3250;BME280;1637;42.020;23.992;2023-07-16T08:51:03;93218.03;;;34.40;46.82
3250;BME280;1637;42.020;23.992;2023-07-16T08:53:31;93205.38;;;34.96;45.42
3250;BME280;1637;42.020;23.992;2023-07-16T08:55:58;93207.91;;;33.20;48.92
3250;BME280;1637;42.020;23.992;2023-07-16T08:58:26;93221.28;;;33.89;47.17
3250;BME280;1637;42.020;23.992;2023-07-16T09:00:54;93217.75;;;34.09;46.41
3250;BME280;1637;42.020;23.992;2023-07-16T09:03:20;93217.81;;;34.95;44.84
3250;BME280;1637;42.020;23.992;2023-07-16T09:05:47;93212.09;;;35.44;45.63
3250;BME280;1637;42.020;23.992;2023-07-16T09:08:15;93218.63;;;35.46;43.25
3250;BME280;1637;42.020;23.992;2023-07-16T09:10:42;93217.91;;;34.53;43.40
3250;BME280;1637;42.020;23.992;2023-07-16T09:13:09;93220.28;;;34.00;44.57
3250;BME280;1637;42.020;23.992;2023-07-16T09:15:38;93221.03;;;34.00;44.21
3250;BME280;1637;42.020;23.992;2023-07-16T09:18:06;93218.44;;;34.02;44.64
3250;BME280;1637;42.020;23.992;2023-07-16T09:20:35;93226.84;;;33.89;44.17
3250;BME280;1637;42.020;23.992;2023-07-16T09:23:02;93213.31;;;33.72;44.58
3250;BME280;1637;42.020;23.992;2023-07-16T09:25:30;93226.44;;;33.85;44.77
3250;BME280;1637;42.020;23.992;2023-07-16T09:27:58;93211.94;;;33.79;46.08
3250;BME280;1637;42.020;23.992;2023-07-16T09:30:30;93214.22;;;33.88;46.13
3250;BME280;1637;42.020;23.992;2023-07-16T09:33:09;93208.47;;;34.28;44.89
3250;BME280;1637;42.020;23.992;2023-07-16T09:35:36;93207.19;;;34.29;43.49
3250;BME280;1637;42.020;23.992;2023-07-16T09:38:03;93209.34;;;34.02;42.41
3250;BME280;1637;42.020;23.992;2023-07-16T09:40:30;93206.78;;;34.04;43.44
3250;BME280;1637;42.020;23.992;2023-07-16T09:42:58;93203.31;;;34.11;42.44
3250;BME280;1637;42.020;23.992;2023-07-16T09:45:25;93204.41;;;34.08;42.93
3250;BME280;1637;42.020;23.992;2023-07-16T09:47:52;93206.69;;;34.66;42.24
3250;BME280;1637;42.020;23.992;2023-07-16T09:50:21;93200.13;;;34.28;41.04
3250;BME280;1637;42.020;23.992;2023-07-16T09:52:50;93200.44;;;33.62;41.97
3250;BME280;1637;42.020;23.992;2023-07-16T09:55:18;93197.38;;;33.73;42.05
3250;BME280;1637;42.020;23.992;2023-07-16T09:57:49;93205.72;;;33.86;41.87
3250;BME280;1637;42.020;23.992;2023-07-16T10:00:17;93200.69;;;34.83;40.42
3250;BME280;1637;42.020;23.992;2023-07-16T10:02:46;93199.63;;;34.37;39.97
3250;BME280;1637;42.020;23.992;2023-07-16T10:05:14;93201.41;;;34.27;41.13
3250;BME280;1637;42.020;23.992;2023-07-16T10:07:43;93208.59;;;34.43;40.19
3250;BME280;1637;42.020;23.992;2023-07-16T10:10:11;93200.13;;;34.28;40.25
3250;BME280;1637;42.020;23.992;2023-07-16T10:12:38;93204.72;;;34.25;40.72
3250;BME280;1637;42.020;23.992;2023-07-16T10:15:05;93190.75;;;33.76;41.34
3250;BME280;1637;42.020;23.992;2023-07-16T10:17:32;93201.94;;;33.63;42.56
3250;BME280;1637;42.020;23.992;2023-07-16T10:20:01;93198.25;;;33.81;39.26
3250;BME280;1637;42.020;23.992;2023-07-16T10:22:35;93167.50;;;33.45;41.00
3250;BME280;1637;42.020;23.992;2023-07-16T10:25:21;93190.31;;;34.06;39.96
3250;BME280;1637;42.020;23.992;2023-07-16T10:27:50;93193.31;;;33.74;40.71
3250;BME280;1637;42.020;23.992;2023-07-16T10:30:17;93199.53;;;34.01;40.36
3250;BME280;1637;42.020;23.992;2023-07-16T10:32:44;93197.00;;;33.90;39.71
3250;BME280;1637;42.020;23.992;2023-07-16T10:35:12;93187.53;;;33.51;40.02
3250;BME280;1637;42.020;23.992;2023-07-16T10:37:39;93185.31;;;33.50;41.08
3250;BME280;1637;42.020;23.992;2023-07-16T10:40:10;93172.59;;;33.96;39.75
3250;BME280;1637;42.020;23.992;2023-07-16T10:42:37;93185.72;;;33.54;40.63
3250;BME280;1637;42.020;23.992;2023-07-16T10:45:05;93179.75;;;33.50;40.78
3250;BME280;1637;42.020;23.992;2023-07-16T10:47:33;93178.78;;;33.13;40.37
3250;BME280;1637;42.020;23.992;2023-07-16T10:50:03;93188.78;;;33.42;38.16
3250;BME280;1637;42.020;23.992;2023-07-16T10:52:30;93187.53;;;33.51;39.12
3250;BME280;1637;42.020;23.992;2023-07-16T10:54:57;93171.84;;;33.54;38.33
3250;BME280;1637;42.020;23.992;2023-07-16T10:57:26;93182.84;;;33.12;39.67
3250;BME280;1637;42.020;23.992;2023-07-16T10:59:54;93176.63;;;33.19;40.05
3250;BME280;1637;42.020;23.992;2023-07-16T11:02:22;93180.84;;;32.86;40.77
3250;BME280;1637;42.020;23.992;2023-07-16T11:04:49;93177.91;;;33.18;40.01
3250;BME280;1637;42.020;23.992;2023-07-16T11:07:18;93175.13;;;33.31;40.07
3250;BME280;1637;42.020;23.992;2023-07-16T11:09:47;93185.47;;;33.65;38.38
3250;BME280;1637;42.020;23.992;2023-07-16T11:12:15;93182.97;;;33.95;39.03
3250;BME280;1637;42.020;23.992;2023-07-16T11:14:45;93154.63;;;33.55;38.82
3250;BME280;1637;42.020;23.992;2023-07-16T11:17:13;93145.47;;;33.47;39.62
3250;BME280;1637;42.020;23.992;2023-07-16T11:19:41;93177.50;;;33.82;38.68
3250;BME280;1637;42.020;23.992;2023-07-16T11:22:09;93173.25;;;33.68;39.75
3250;BME280;1637;42.020;23.992;2023-07-16T11:24:37;93174.63;;;33.74;38.89
3250;BME280;1637;42.020;23.992;2023-07-16T11:27:06;93179.78;;;33.91;39.11
3250;BME280;1637;42.020;23.992;2023-07-16T11:29:38;93177.19;;;33.72;39.03
3250;BME280;1637;42.020;23.992;2023-07-16T11:32:09;93169.44;;;33.37;39.69
3250;BME280;1637;42.020;23.992;2023-07-16T11:34:35;93170.06;;;33.43;40.52
3250;BME280;1637;42.020;23.992;2023-07-16T11:37:11;93133.91;;;33.22;40.54
3250;BME280;1637;42.020;23.992;2023-07-16T11:39:38;93162.59;;;33.04;40.31
3250;BME280;1637;42.020;23.992;2023-07-16T11:42:05;93176.28;;;32.75;40.21
3250;BME280;1637;42.020;23.992;2023-07-16T11:44:33;93145.78;;;32.49;40.77
3250;BME280;1637;42.020;23.992;2023-07-16T11:47:01;93163.72;;;32.74;41.26
3250;BME280;1637;42.020;23.992;2023-07-16T11:49:29;93155.50;;;33.16;41.06
3250;BME280;1637;42.020;23.992;2023-07-16T11:51:56;93161.31;;;32.92;40.40
3250;BME280;1637;42.020;23.992;2023-07-16T11:54:23;93159.06;;;33.03;40.62
3250;BME280;1637;42.020;23.992;2023-07-16T11:56:50;93171.91;;;33.61;40.12
3250;BME280;1637;42.020;23.992;2023-07-16T11:59:17;93174.81;;;33.56;40.13
3250;BME280;1637;42.020;23.992;2023-07-16T12:01:46;93173.53;;;33.57;39.76
3250;BME280;1637;42.020;23.992;2023-07-16T12:04:13;93176.59;;;33.45;39.52
3250;BME280;1637;42.020;23.992;2023-07-16T12:06:42;93169.72;;;33.81;38.24
3250;BME280;1637;42.020;23.992;2023-07-16T12:09:08;93182.16;;;33.32;39.86
3250;BME280;1637;42.020;23.992;2023-07-16T12:11:35;93172.69;;;33.28;40.12
3250;BME280;1637;42.020;23.992;2023-07-16T12:14:03;93173.66;;;33.17;40.58
3250;BME280;1637;42.020;23.992;2023-07-16T12:16:30;93173.28;;;33.00;40.18
3250;BME280;1637;42.020;23.992;2023-07-16T12:18:57;93176.09;;;33.21;40.90
3250;BME280;1637;42.020;23.992;2023-07-16T12:21:24;93170.88;;;33.51;39.57
3250;BME280;1637;42.020;23.992;2023-07-16T12:23:52;93173.88;;;33.53;39.81
3250;BME280;1637;42.020;23.992;2023-07-16T12:26:19;93189.81;;;33.94;40.11
3250;BME280;1637;42.020;23.992;2023-07-16T12:28:45;93177.50;;;33.48;40.71
3250;BME280;1637;42.020;23.992;2023-07-16T12:31:13;93175.97;;;33.39;38.83
3250;BME280;1637;42.020;23.992;2023-07-16T12:33:40;93187.47;;;32.96;40.10
3250;BME280;1637;42.020;23.992;2023-07-16T12:36:07;93169.97;;;32.88;40.61
3250;BME280;1637;42.020;23.992;2023-07-16T12:38:34;93166.97;;;32.99;41.29
3250;BME280;1637;42.020;23.992;2023-07-16T12:41:02;93175.88;;;33.19;40.38
3250;BME280;1637;42.020;23.992;2023-07-16T12:43:29;93146.63;;;33.18;40.13
3250;BME280;1637;42.020;23.992;2023-07-16T12:45:58;93171.31;;;33.08;39.94
3250;BME280;1637;42.020;23.992;2023-07-16T12:48:25;93169.22;;;33.01;39.90
3250;BME280;1637;42.020;23.992;2023-07-16T12:50:51;93172.59;;;33.20;40.22
3250;BME280;1637;42.020;23.992;2023-07-16T12:53:18;93169.88;;;32.94;40.55
3250;BME280;1637;42.020;23.992;2023-07-16T12:55:45;93168.44;;;33.13;41.31
3250;BME280;1637;42.020;23.992;2023-07-16T12:58:13;93169.06;;;33.54;39.96
3250;BME280;1637;42.020;23.992;2023-07-16T13:00:40;93171.38;;;33.63;37.53
3250;BME280;1637;42.020;23.992;2023-07-16T13:03:07;93171.84;;;33.54;38.74
3250;BME280;1637;42.020;23.992;2023-07-16T13:05:37;93177.34;;;32.99;38.80
3250;BME280;1637;42.020;23.992;2023-07-16T13:08:04;93167.19;;;33.01;38.92
3250;BME280;1637;42.020;23.992;2023-07-16T13:10:31;93164.56;;;32.83;38.96